createdAt,value
2022-12-25T00:02:17.875Z,101507.88
2022-12-25T00:04:44.590Z,101512.25
2022-12-25T00:07:11.126Z,101510.28
2022-12-25T00:09:37.532Z,101513.59
2022-12-25T00:12:04.046Z,101507.13
2022-12-25T00:14:30.471Z,101508.81
2022-12-25T00:16:57.037Z,101501.53
2022-12-25T00:19:23.505Z,101497.75
2022-12-25T00:21:49.938Z,101497.59
2022-12-25T00:24:16.400Z,101497.53
2022-12-25T00:26:43.474Z,101499.19
2022-12-25T00:29:13.652Z,101508.88
2022-12-25T00:31:40.421Z,101507.88
2022-12-25T00:34:07.239Z,101504.16
2022-12-25T00:36:39.509Z,101494.16
2022-12-25T00:39:08.049Z,101503.78
2022-12-25T00:41:53.078Z,101500.00
2022-12-25T00:44:19.641Z,101493.69
2022-12-25T00:46:46.725Z,101491.94
2022-12-25T00:49:13.445Z,101501.59
2022-12-25T00:51:39.955Z,101508.59
2022-12-25T00:54:06.675Z,101503.22
2022-12-25T00:56:33.276Z,101507.59
2022-12-25T00:58:59.739Z,101507.44
2022-12-25T01:01:26.263Z,101516.28
2022-12-25T01:03:52.877Z,101510.09
2022-12-25T01:06:19.678Z,101511.88
2022-12-25T01:09:04.689Z,101512.63
2022-12-25T01:11:31.648Z,101509.03
2022-12-25T01:13:58.351Z,101508.06
2022-12-25T01:16:25.179Z,101524.97
2022-12-25T01:18:52.057Z,101513.34
2022-12-25T01:21:21.234Z,101511.53
2022-12-25T01:23:50.487Z,101521.31
2022-12-25T01:26:18.340Z,101522.19
2022-12-25T01:28:45.141Z,101520.31
2022-12-25T01:31:15.025Z,101518.41
2022-12-25T01:33:43.753Z,101531.78
2022-12-25T01:36:18.140Z,101525.53
2022-12-25T01:38:45.732Z,101527.13
2022-12-25T01:41:13.701Z,101520.69
2022-12-25T01:44:27.918Z,101523.38
2022-12-25T01:46:54.310Z,101512.63
2022-12-25T01:49:25.043Z,101510.03
2022-12-25T01:51:57.144Z,101509.16
2022-12-25T01:54:31.535Z,101509.25
2022-12-25T01:57:02.747Z,101516.50
2022-12-25T01:59:29.730Z,101524.63
2022-12-25T02:01:57.000Z,101523.88
2022-12-25T02:04:41.210Z,101530.34
2022-12-25T02:07:18.840Z,101529.63
2022-12-25T02:09:46.079Z,101528.91
2022-12-25T02:12:22.742Z,101525.59
2022-12-25T02:14:50.912Z,101519.66
2022-12-25T02:17:31.271Z,101513.72
2022-12-25T02:20:04.199Z,101523.19
2022-12-25T02:22:54.308Z,101524.28
2022-12-25T02:25:59.639Z,101516.38
2022-12-25T02:28:29.990Z,101507.41
2022-12-25T02:31:05.000Z,101510.84
2022-12-25T02:33:56.778Z,101513.84
2022-12-25T02:36:28.237Z,101513.06
2022-12-25T02:39:17.075Z,101517.19
2022-12-25T02:41:47.402Z,101525.72
2022-12-25T02:44:37.827Z,101520.19
2022-12-25T02:47:27.529Z,101511.44
2022-12-25T02:50:14.878Z,101515.06
2022-12-25T02:53:02.781Z,101501.63
2022-12-25T02:55:58.435Z,101507.09
2022-12-25T02:58:45.503Z,101498.78
2022-12-25T03:01:35.437Z,101494.69
2022-12-25T03:04:26.752Z,101495.13
2022-12-25T03:07:01.967Z,101486.66
2022-12-25T03:09:52.020Z,101475.75
2022-12-25T03:12:29.621Z,101465.09
2022-12-25T03:15:14.544Z,101465.09
2022-12-25T03:17:41.417Z,101457.19
2022-12-25T03:20:27.293Z,101452.72
2022-12-25T03:23:12.929Z,101457.66
2022-12-25T03:25:57.802Z,101453.81
2022-12-25T03:28:24.332Z,101444.63
2022-12-25T03:31:12.598Z,101456.84
2022-12-25T03:34:13.330Z,101459.28
2022-12-25T03:37:17.136Z,101458.19
2022-12-25T03:39:49.444Z,101455.34
2022-12-25T03:42:39.619Z,101458.81
2022-12-25T03:45:30.851Z,101457.84
2022-12-25T03:48:18.499Z,101456.84
2022-12-25T03:51:07.669Z,101460.22
2022-12-25T03:54:06.772Z,101456.50
2022-12-25T03:56:54.126Z,101459.19
2022-12-25T03:59:41.905Z,101463.63
2022-12-25T04:02:27.396Z,101454.69
2022-12-25T04:05:12.609Z,101448.53
2022-12-25T04:07:58.082Z,101446.78
2022-12-25T04:10:43.980Z,101447.09
2022-12-25T04:13:29.395Z,101435.81
2022-12-25T04:16:14.501Z,101430.72
2022-12-25T04:18:59.609Z,101439.94
2022-12-25T04:21:44.541Z,101434.75
2022-12-25T04:24:30.006Z,101445.56
2022-12-25T04:27:15.594Z,101451.19
2022-12-25T04:30:00.415Z,101454.81
2022-12-25T04:32:45.292Z,101465.72
2022-12-25T04:35:30.598Z,101464.00
2022-12-25T04:37:57.251Z,101455.94
2022-12-25T04:40:23.737Z,101450.66
2022-12-25T04:42:51.427Z,101454.28
2022-12-25T04:45:18.269Z,101453.56
2022-12-25T04:47:44.788Z,101459.09
2022-12-25T04:50:11.510Z,101460.91
2022-12-25T04:52:40.253Z,101452.16
2022-12-25T04:55:08.168Z,101443.31
2022-12-25T04:57:34.798Z,101454.06
2022-12-25T05:00:01.606Z,101448.06
2022-12-25T05:02:28.418Z,101449.16
2022-12-25T05:04:55.010Z,101435.81
2022-12-25T05:07:21.527Z,101424.28
2022-12-25T05:09:48.280Z,101428.09
2022-12-25T05:12:14.738Z,101438.81
2022-12-25T05:14:41.579Z,101434.38
2022-12-25T05:17:08.245Z,101430.06
2022-12-25T05:19:35.088Z,101426.31
2022-12-25T05:22:02.092Z,101412.91
2022-12-25T05:24:28.787Z,101414.59
2022-12-25T05:26:55.476Z,101405.66
2022-12-25T05:29:22.411Z,101404.00
2022-12-25T05:31:48.966Z,101411.19
2022-12-25T05:34:15.486Z,101402.25
2022-12-25T05:36:43.008Z,101401.31
2022-12-25T05:39:09.967Z,101397.69
2022-12-25T05:41:36.412Z,101394.91
2022-12-25T05:44:02.983Z,101397.59
2022-12-25T05:46:29.525Z,101390.69
2022-12-25T05:48:56.115Z,101391.69
2022-12-25T05:51:22.564Z,101392.56
2022-12-25T05:53:49.114Z,101393.41
2022-12-25T05:56:15.756Z,101399.66
2022-12-25T05:58:42.401Z,101396.03
2022-12-25T06:01:21.559Z,101399.56
2022-12-25T06:03:48.567Z,101401.16
2022-12-25T06:06:15.334Z,101401.00
2022-12-25T06:08:41.805Z,101400.03
2022-12-25T06:11:09.295Z,101394.59
2022-12-25T06:13:36.989Z,101392.69
2022-12-25T06:16:08.529Z,101372.97
2022-12-25T06:18:43.012Z,101369.25
2022-12-25T06:21:11.313Z,101370.81
2022-12-25T06:23:39.013Z,101362.69
2022-12-25T06:26:07.770Z,101365.38
2022-12-25T06:28:34.317Z,101374.97
2022-12-25T06:31:07.410Z,101380.13
2022-12-25T06:33:34.004Z,101375.56
2022-12-25T06:36:08.407Z,101369.03
2022-12-25T06:38:35.216Z,101378.69
2022-12-25T06:41:12.972Z,101365.97
2022-12-25T06:43:39.498Z,101357.81
2022-12-25T06:46:09.521Z,101345.00
2022-12-25T06:48:37.582Z,101347.44
2022-12-25T06:51:05.696Z,101346.41
2022-12-25T06:53:39.657Z,101344.47
2022-12-25T06:56:09.316Z,101356.91
2022-12-25T06:58:36.202Z,101344.25
2022-12-25T07:01:15.620Z,101342.41
2022-12-25T07:03:44.185Z,101337.81
2022-12-25T07:06:11.246Z,101333.16
2022-12-25T07:08:37.723Z,101334.88
2022-12-25T07:11:04.780Z,101326.81
2022-12-25T07:13:31.248Z,101333.16
2022-12-25T07:15:59.703Z,101337.66
2022-12-25T07:18:27.024Z,101334.03
2022-12-25T07:20:55.747Z,101342.94
2022-12-25T07:23:23.176Z,101347.28
2022-12-25T07:25:57.502Z,101355.25
2022-12-25T07:28:24.754Z,101349.88
2022-12-25T07:30:51.647Z,101351.59
2022-12-25T07:33:19.125Z,101351.47
2022-12-25T07:35:45.925Z,101361.16
2022-12-25T07:38:12.524Z,101352.91
2022-12-25T07:40:39.237Z,101352.91
2022-12-25T07:43:05.783Z,101346.63
2022-12-25T07:45:32.327Z,101352.81
2022-12-25T07:48:04.931Z,101362.75
2022-12-25T07:50:32.447Z,101363.59
2022-12-25T07:52:59.003Z,101378.88
2022-12-25T07:55:25.431Z,101383.28
2022-12-25T07:57:52.144Z,101373.47
2022-12-25T08:00:19.631Z,101362.75
2022-12-25T08:02:50.036Z,101362.75
2022-12-25T08:05:16.837Z,101368.94
2022-12-25T08:07:43.584Z,101373.47
2022-12-25T08:10:10.386Z,101375.22
2022-12-25T08:12:36.898Z,101376.09
2022-12-25T08:15:03.961Z,101383.28
2022-12-25T08:17:30.798Z,101386.75
2022-12-25T08:19:57.236Z,101383.19
2022-12-25T08:22:23.664Z,101392.03
2022-12-25T08:24:50.147Z,101403.66
2022-12-25T08:27:16.657Z,101400.97
2022-12-25T08:29:46.041Z,101393.75
2022-12-25T08:32:12.508Z,101390.97
2022-12-25T08:34:39.269Z,101390.97
2022-12-25T08:37:05.750Z,101389.16
2022-12-25T08:39:32.337Z,101385.59
2022-12-25T08:41:58.791Z,101386.47
2022-12-25T08:44:25.262Z,101388.25
2022-12-25T08:46:51.817Z,101361.34
2022-12-25T08:49:18.266Z,101356.81
2022-12-25T08:51:45.608Z,101362.13
2022-12-25T08:54:12.407Z,101355.72
2022-12-25T08:56:38.976Z,101355.63
2022-12-25T08:59:05.444Z,101359.09
2022-12-25T09:01:31.941Z,101356.41
2022-12-25T09:03:58.428Z,101356.31
2022-12-25T09:06:26.291Z,101357.19
2022-12-25T09:08:52.854Z,101364.28
2022-12-25T09:11:20.394Z,101357.94
2022-12-25T09:13:48.147Z,101359.69
2022-12-25T09:16:17.864Z,101363.19
2022-12-25T09:18:44.584Z,101367.59
2022-12-25T09:21:12.812Z,101373.84
2022-12-25T09:23:39.479Z,101377.28
2022-12-25T09:26:08.081Z,101367.31
2022-12-25T09:28:35.054Z,101367.31
2022-12-25T09:31:02.564Z,101367.22
2022-12-25T09:33:29.062Z,101375.19
2022-12-25T09:36:04.818Z,101384.00
2022-12-25T09:38:32.070Z,101387.72
2022-12-25T09:41:06.478Z,101395.72
2022-12-25T09:43:38.827Z,101389.38
2022-12-25T09:46:13.248Z,101377.59
2022-12-25T09:48:42.369Z,101373.09
2022-12-25T09:51:12.995Z,101371.25
2022-12-25T09:53:44.236Z,101370.22
2022-12-25T09:56:14.394Z,101356.69
2022-12-25T09:58:40.916Z,101364.75
2022-12-25T10:01:26.793Z,101366.56
2022-12-25T10:04:03.905Z,101355.81
2022-12-25T10:06:41.508Z,101345.03
2022-12-25T10:09:10.796Z,101342.34
2022-12-25T10:12:06.002Z,101354.94
2022-12-25T10:14:47.816Z,101359.47
2022-12-25T10:17:28.967Z,101344.25
2022-12-25T10:20:13.674Z,101340.88
2022-12-25T10:22:44.137Z,101342.53
2022-12-25T10:25:23.170Z,101338.03
2022-12-25T10:27:54.228Z,101342.44
2022-12-25T10:30:26.091Z,101331.69
2022-12-25T10:32:54.923Z,101338.03
2022-12-25T10:35:23.198Z,101333.59
2022-12-25T10:38:01.275Z,101329.00
2022-12-25T10:40:47.627Z,101326.22
2022-12-25T10:43:24.714Z,101315.38
2022-12-25T10:45:51.182Z,101321.53
2022-12-25T10:48:25.894Z,101305.41
2022-12-25T10:50:52.833Z,101318.84
2022-12-25T10:53:25.987Z,101306.38
2022-12-25T10:56:04.446Z,101288.47
2022-12-25T10:58:32.020Z,101283.88
2022-12-25T11:01:02.103Z,101283.97
2022-12-25T11:03:32.934Z,101278.50
2022-12-25T11:05:59.988Z,101270.25
2022-12-25T11:08:29.126Z,101270.16
2022-12-25T11:10:59.308Z,101267.22
2022-12-25T11:13:30.105Z,101259.88
2022-12-25T11:16:10.716Z,101258.06
2022-12-25T11:18:56.412Z,101250.97
2022-12-25T11:21:30.165Z,101243.84
2022-12-25T11:24:02.286Z,101236.75
2022-12-25T11:26:31.840Z,101237.53
2022-12-25T11:28:59.177Z,101230.13
2022-12-25T11:31:42.971Z,101240.81
2022-12-25T11:34:36.098Z,101221.69
2022-12-25T11:37:08.312Z,101201.72
2022-12-25T11:39:37.235Z,101203.34
2022-12-25T11:42:16.350Z,101194.03
2022-12-25T11:45:01.051Z,101173.09
2022-12-25T11:47:36.457Z,101179.81
2022-12-25T11:50:14.087Z,101184.03
2022-12-25T11:52:44.817Z,101179.22
2022-12-25T11:55:37.383Z,101175.03
2022-12-25T11:58:15.662Z,101187.91
2022-12-25T12:00:45.058Z,101186.25
2022-12-25T12:03:19.968Z,101186.44
2022-12-25T12:05:57.391Z,101191.16
2022-12-25T12:08:24.234Z,101187.78
2022-12-25T12:11:17.905Z,101182.50
2022-12-25T12:13:50.164Z,101189.59
2022-12-25T12:16:16.796Z,101193.06
2022-12-25T12:18:50.069Z,101181.34
2022-12-25T12:21:26.313Z,101174.13
2022-12-25T12:24:00.443Z,101171.53
2022-12-25T12:26:29.267Z,101171.63
2022-12-25T12:28:59.895Z,101169.91
2022-12-25T12:31:41.286Z,101161.75
2022-12-25T12:34:21.006Z,101155.47
2022-12-25T12:36:48.442Z,101158.19
2022-12-25T12:39:25.626Z,101154.59
2022-12-25T12:41:52.932Z,101142.13
2022-12-25T12:44:22.769Z,101135.78
2022-12-25T12:46:55.848Z,101131.47
2022-12-25T12:49:22.307Z,101144.16
2022-12-25T12:51:49.452Z,101143.47
2022-12-25T12:54:23.604Z,101152.50
2022-12-25T12:57:05.449Z,101150.75
2022-12-25T12:59:49.820Z,101153.56
2022-12-25T13:02:34.908Z,101149.03
2022-12-25T13:05:19.165Z,101144.63
2022-12-25T13:07:55.222Z,101135.78
2022-12-25T13:10:31.179Z,101130.41
2022-12-25T13:13:01.902Z,101123.28
2022-12-25T13:15:31.591Z,101112.63
2022-12-25T13:18:04.013Z,101109.81
2022-12-25T13:20:45.340Z,101106.00
2022-12-25T13:23:30.301Z,101096.84
2022-12-25T13:25:59.324Z,101099.47
2022-12-25T13:28:26.753Z,101100.41
2022-12-25T13:30:53.269Z,101107.56
2022-12-25T13:33:22.554Z,101101.28
2022-12-25T13:35:50.120Z,101097.72
2022-12-25T13:38:18.165Z,101088.78
2022-12-25T13:41:14.735Z,101085.25
2022-12-25T13:43:43.795Z,101085.44
2022-12-25T13:46:14.272Z,101078.22
2022-12-25T13:48:41.963Z,101076.41
2022-12-25T13:51:16.821Z,101082.56
2022-12-25T13:53:44.075Z,101087.94
2022-12-25T13:56:16.076Z,101088.03
2022-12-25T13:58:46.339Z,101085.34
2022-12-25T14:01:16.276Z,101078.31
2022-12-25T14:03:46.109Z,101081.00
2022-12-25T14:06:27.438Z,101070.25
2022-12-25T14:08:58.693Z,101070.25
2022-12-25T14:11:29.479Z,101079.28
2022-12-25T14:14:02.377Z,101068.53
2022-12-25T14:16:29.379Z,101065.94
2022-12-25T14:18:57.236Z,101075.84
2022-12-25T14:21:49.140Z,101082.19
2022-12-25T14:24:16.587Z,101085.72
2022-12-25T14:26:43.886Z,101085.81
2022-12-25T14:29:17.647Z,101079.50
2022-12-25T14:31:46.700Z,101075.84
2022-12-25T14:34:20.609Z,101072.38
2022-12-25T14:36:48.068Z,101078.63
2022-12-25T14:39:47.470Z,101073.25
2022-12-25T14:42:25.864Z,101069.69
2022-12-25T14:45:03.384Z,101064.19
2022-12-25T14:47:32.180Z,101046.25
2022-12-25T14:49:59.844Z,101047.84
2022-12-25T14:52:28.070Z,101049.72
2022-12-25T14:55:06.846Z,101047.97
2022-12-25T14:57:41.063Z,101055.88
2022-12-25T15:00:21.530Z,101062.97
2022-12-25T15:02:50.143Z,101057.69
2022-12-25T15:05:25.906Z,101055.88
2022-12-25T15:08:08.791Z,101061.41
2022-12-25T15:13:22.652Z,101060.66
2022-12-25T15:15:59.996Z,101052.59
2022-12-25T15:18:31.791Z,101061.50
2022-12-25T15:20:58.941Z,101069.56
2022-12-25T15:23:25.598Z,101074.13
2022-12-25T15:25:52.662Z,101075.94
2022-12-25T15:28:19.743Z,101066.13
2022-12-25T15:30:47.020Z,101066.13
2022-12-25T15:33:15.504Z,101062.59
2022-12-25T15:35:44.185Z,101059.91
2022-12-25T15:38:12.334Z,101062.59
2022-12-25T15:40:39.326Z,101068.06
2022-12-25T15:43:14.332Z,101060.00
2022-12-25T15:45:48.893Z,101057.31
2022-12-25T15:48:15.290Z,101051.94
2022-12-25T15:50:42.236Z,101050.06
2022-12-25T15:53:10.696Z,101049.13
2022-12-25T15:55:37.696Z,101049.97
2022-12-25T15:58:04.313Z,101042.88
2022-12-25T16:00:30.765Z,101042.78
2022-12-25T16:02:57.583Z,101035.78
2022-12-25T16:05:24.049Z,101025.88
2022-12-25T16:07:50.713Z,101023.28
2022-12-25T16:10:20.008Z,101026.06
2022-12-25T16:12:46.538Z,101036.94
2022-12-25T16:15:14.913Z,101037.81
2022-12-25T16:17:42.332Z,101044.03
2022-12-25T16:20:09.336Z,101041.44
2022-12-25T16:22:39.971Z,101049.41
2022-12-25T16:25:18.547Z,101046.72
2022-12-25T16:27:46.313Z,101052.09
2022-12-25T16:30:15.577Z,101045.88
2022-12-25T16:32:42.603Z,101047.59
2022-12-25T16:35:10.733Z,101038.56
2022-12-25T16:37:38.092Z,101025.13
2022-12-25T16:40:05.277Z,101033.09
2022-12-25T16:42:31.736Z,101021.47
2022-12-25T16:44:58.214Z,101011.69
2022-12-25T16:47:25.131Z,101004.44
2022-12-25T16:49:52.027Z,100998.22
2022-12-25T16:52:18.445Z,101005.31
2022-12-25T16:54:46.595Z,101013.38
2022-12-25T16:57:14.235Z,101013.38
2022-12-25T16:59:41.475Z,101019.75
2022-12-25T17:02:13.630Z,101019.75
2022-12-25T17:04:40.171Z,101017.13
2022-12-25T17:07:06.595Z,101018.09
2022-12-25T17:09:37.481Z,101017.22
2022-12-25T17:12:07.509Z,101005.63
2022-12-25T17:14:35.073Z,101011.84
2022-12-25T17:17:02.215Z,101005.63
2022-12-25T17:19:29.484Z,101006.47
2022-12-25T17:21:56.104Z,101001.97
2022-12-25T17:24:23.320Z,101010.03
2022-12-25T17:26:49.935Z,101008.22
2022-12-25T17:29:21.641Z,101014.53
2022-12-25T17:31:48.873Z,101012.81
2022-12-25T17:34:15.649Z,101014.63
2022-12-25T17:36:42.181Z,101017.22
2022-12-25T17:39:10.612Z,101012.81
2022-12-25T17:41:37.747Z,101009.25
2022-12-25T17:44:04.429Z,101003.03
2022-12-25T17:46:31.619Z,101004.94
2022-12-25T17:48:59.892Z,101004.94
2022-12-25T17:51:28.652Z,101012.16
2022-12-25T17:53:58.279Z,101022.13
2022-12-25T17:56:25.231Z,101020.53
2022-12-25T17:58:57.944Z,101021.47
2022-12-25T18:01:26.667Z,101019.75
2022-12-25T18:03:53.618Z,101015.25
2022-12-25T18:06:23.298Z,101009.84
2022-12-25T18:08:50.176Z,101003.59
2022-12-25T18:11:19.380Z,100994.75
2022-12-25T18:13:49.709Z,100988.44
2022-12-25T18:16:17.263Z,101001.03
2022-12-25T18:18:51.138Z,100994.66
2022-12-25T18:21:19.429Z,100991.13
2022-12-25T18:23:46.395Z,100988.44
2022-12-25T18:26:13.964Z,100980.38
2022-12-25T18:28:42.591Z,100986.69
2022-12-25T18:31:32.800Z,100991.31
2022-12-25T18:34:02.501Z,101003.03
2022-12-25T18:36:29.966Z,101011.09
2022-12-25T18:38:57.413Z,101005.72
2022-12-25T18:41:24.298Z,100995.13
2022-12-25T18:43:52.122Z,101000.44
2022-12-25T18:46:26.592Z,101004.13
2022-12-25T18:48:55.658Z,101007.81
2022-12-25T18:51:22.594Z,101015.00
2022-12-25T18:53:49.208Z,101011.47
2022-12-25T18:56:17.841Z,101007.03
2022-12-25T18:58:45.502Z,101006.19
2022-12-25T19:01:20.572Z,100999.94
2022-12-25T19:03:48.956Z,101006.09
2022-12-25T19:06:21.854Z,100991.78
2022-12-25T19:08:48.903Z,100996.28
2022-12-25T19:11:16.474Z,100991.78
2022-12-25T19:13:43.572Z,100994.66
2022-12-25T19:16:10.790Z,100992.81
2022-12-25T19:18:38.518Z,100992.81
2022-12-25T19:21:07.304Z,100989.19
2022-12-25T19:23:34.496Z,100977.56
2022-12-25T19:26:04.558Z,100979.31
2022-12-25T19:28:31.288Z,100992.75
2022-12-25T19:31:00.395Z,100991.78
2022-12-25T19:33:27.591Z,100990.78
2022-12-25T19:35:58.572Z,100983.59
2022-12-25T19:38:25.196Z,100988.09
2022-12-25T19:41:00.954Z,100995.22
2022-12-25T19:43:33.445Z,101003.19
2022-12-25T19:46:01.512Z,101010.31
2022-12-25T19:48:29.966Z,101013.88
2022-12-25T19:50:56.545Z,101017.34
2022-12-25T19:53:23.732Z,101009.50
2022-12-25T19:55:54.407Z,101014.06
2022-12-25T19:58:22.876Z,101011.47
2022-12-25T20:01:01.035Z,101011.47
2022-12-25T20:03:27.956Z,101009.50
2022-12-25T20:05:54.643Z,101012.22
2022-12-25T20:08:21.417Z,101013.09
2022-12-25T20:10:51.061Z,101008.50
2022-12-25T20:13:17.852Z,101016.47
2022-12-25T20:15:44.767Z,101016.47
2022-12-25T20:18:11.339Z,101011.00
2022-12-25T20:20:37.919Z,101011.88
2022-12-25T20:23:04.527Z,101011.09
2022-12-25T20:25:31.250Z,101018.19
2022-12-25T20:27:58.091Z,101020.88
2022-12-25T20:30:24.611Z,101019.06
2022-12-25T20:32:51.476Z,101013.78
2022-12-25T20:35:18.083Z,101010.91
2022-12-25T20:37:44.738Z,101016.38
2022-12-25T20:40:12.051Z,101018.03
2022-12-25T20:42:38.525Z,101011.78
2022-12-25T20:45:07.418Z,101008.31
2022-12-25T20:47:34.893Z,101006.41
2022-12-25T20:50:01.360Z,101014.47
2022-12-25T20:52:27.955Z,101014.47
2022-12-25T20:54:54.441Z,101026.09
2022-12-25T20:57:20.926Z,101020.63
2022-12-25T20:59:47.464Z,101016.06
2022-12-25T21:02:34.179Z,101017.06
2022-12-25T21:05:01.131Z,101025.13
2022-12-25T21:07:27.594Z,101028.69
2022-12-25T21:09:54.098Z,101026.94
2022-12-25T21:12:20.562Z,101032.22
2022-12-25T21:14:47.097Z,101024.16
2022-12-25T21:17:14.091Z,101024.09
2022-12-25T21:19:40.610Z,101040.13
2022-12-25T21:22:07.092Z,101028.59
2022-12-25T21:24:33.935Z,101042.91
2022-12-25T21:27:00.483Z,101036.56
2022-12-25T21:29:27.106Z,101028.28
2022-12-25T21:32:12.873Z,101034.53
2022-12-25T21:34:39.891Z,101038.94
2022-12-25T21:37:06.466Z,101057.88
2022-12-25T21:39:32.999Z,101064.13
2022-12-25T21:41:59.855Z,101060.47
2022-12-25T21:44:26.390Z,101064.91
2022-12-25T21:46:53.062Z,101063.91
2022-12-25T21:49:39.657Z,101059.53
2022-12-25T21:52:08.774Z,101066.50
2022-12-25T21:54:37.456Z,101062.00
2022-12-25T21:57:04.993Z,101062.84
2022-12-25T21:59:31.510Z,101064.59
2022-12-25T22:01:59.398Z,101064.59
2022-12-25T22:04:26.454Z,101058.16
2022-12-25T22:07:12.144Z,101061.81
2022-12-25T22:09:38.675Z,101070.66
2022-12-25T22:12:28.590Z,101064.41
2022-12-25T22:15:02.970Z,101067.00
2022-12-25T22:17:52.553Z,101071.50
2022-12-25T22:20:25.730Z,101072.28
2022-12-25T22:22:52.910Z,101068.75
2022-12-25T22:25:20.189Z,101078.63
2022-12-25T22:27:48.501Z,101070.44
2022-12-25T22:30:21.030Z,101074.13
2022-12-25T22:32:48.061Z,101083.91
2022-12-25T22:35:16.384Z,101074.97
2022-12-25T22:37:43.830Z,101060.56
2022-12-25T22:40:12.959Z,101058.72
2022-12-25T22:42:40.212Z,101059.50
2022-12-25T22:45:07.235Z,101044.22
2022-12-25T22:47:34.057Z,101046.91
2022-12-25T22:50:00.774Z,101050.47
2022-12-25T22:52:27.276Z,101059.38
2022-12-25T22:54:53.749Z,101043.25
2022-12-25T22:57:20.266Z,101032.50
2022-12-25T22:59:46.748Z,101047.69
2022-12-25T23:02:13.268Z,101049.50
2022-12-25T23:04:39.817Z,101053.16
2022-12-25T23:07:07.080Z,101068.34
2022-12-25T23:09:34.077Z,101061.13
2022-12-25T23:12:00.647Z,101062.84
2022-12-25T23:14:39.995Z,101063.84
2022-12-25T23:17:30.138Z,101048.53
2022-12-25T23:20:18.779Z,101038.66
2022-12-25T23:23:04.726Z,101047.59
2022-12-25T23:25:51.839Z,101035.94
2022-12-25T23:28:38.325Z,101021.53
2022-12-25T23:31:05.556Z,101027.00
2022-12-25T23:33:32.215Z,101034.97
2022-12-25T23:35:58.647Z,101041.22
2022-12-25T23:38:25.429Z,101043.03
2022-12-25T23:40:52.695Z,101061.88
2022-12-25T23:43:19.509Z,101059.19
2022-12-25T23:45:46.386Z,101065.44
2022-12-25T23:48:12.881Z,101065.53
2022-12-25T23:50:39.438Z,101065.53
2022-12-25T23:53:05.953Z,101052.00
2022-12-25T23:55:33.475Z,101055.66
2022-12-25T23:57:59.963Z,101069.09
